createdAt,value
2023-04-11T00:02:01.586Z,11.60
2023-04-11T00:04:29.006Z,11.90
2023-04-11T00:06:57.089Z,12.38
2023-04-11T00:09:26.727Z,11.90
2023-04-11T00:11:54.070Z,12.40
2023-04-11T00:14:23.754Z,11.82
2023-04-11T00:16:53.818Z,10.45
2023-04-11T00:19:28.310Z,11.98
2023-04-11T00:22:00.541Z,12.68
2023-04-11T00:24:30.775Z,10.70
2023-04-11T00:27:01.478Z,11.45
2023-04-11T00:29:33.998Z,12.18
2023-04-11T00:32:01.468Z,11.13
2023-04-11T00:34:29.005Z,10.55
2023-04-11T00:36:56.449Z,13.18
2023-04-11T00:39:26.374Z,11.23
2023-04-11T00:41:53.795Z,13.25
2023-04-11T00:44:25.522Z,10.57
2023-04-11T00:46:57.892Z,10.77
2023-04-11T00:49:25.243Z,10.48
2023-04-11T00:51:53.312Z,10.20
2023-04-11T00:54:20.642Z,11.40
2023-04-11T00:56:48.248Z,11.82
2023-04-11T00:59:15.829Z,10.98
2023-04-11T01:01:43.471Z,11.30
2023-04-11T01:04:10.987Z,10.05
2023-04-11T01:06:38.541Z,11.27
2023-04-11T01:09:05.970Z,10.43
2023-04-11T01:11:34.270Z,10.68
2023-04-11T01:14:04.048Z,11.90
2023-04-11T01:16:36.147Z,10.00
2023-04-11T01:19:03.909Z,10.80
2023-04-11T01:21:32.104Z,11.18
2023-04-11T01:24:03.628Z,10.45
2023-04-11T01:26:31.116Z,10.48
2023-04-11T01:29:00.729Z,10.27
2023-04-11T01:31:32.118Z,10.73
2023-04-11T01:34:03.837Z,11.15
2023-04-11T01:38:59.516Z,12.43
2023-04-11T01:41:28.490Z,9.25
2023-04-11T01:43:58.297Z,9.82
2023-04-11T01:46:28.707Z,9.85
2023-04-11T01:48:58.962Z,12.02
2023-04-11T01:51:27.166Z,10.63
2023-04-11T01:53:55.386Z,9.50
2023-04-11T01:56:22.796Z,8.95
2023-04-11T01:58:52.523Z,9.52
2023-04-11T02:01:20.726Z,9.32
2023-04-11T02:03:48.180Z,11.40
2023-04-11T02:06:17.041Z,10.88
2023-04-11T02:08:46.617Z,11.15
2023-04-11T02:11:13.983Z,10.20
2023-04-11T02:13:41.246Z,9.77
2023-04-11T02:16:11.576Z,8.90
2023-04-11T02:18:38.960Z,10.70
2023-04-11T02:21:06.354Z,11.30
2023-04-11T02:23:35.813Z,11.23
2023-04-11T02:26:03.863Z,8.68
2023-04-11T02:28:31.135Z,10.13
2023-04-11T02:31:03.045Z,9.65
2023-04-11T02:33:30.768Z,9.63
2023-04-11T02:35:58.457Z,10.25
2023-04-11T02:38:25.853Z,10.40
2023-04-11T02:40:53.124Z,9.07
2023-04-11T02:43:20.442Z,10.35
2023-04-11T02:45:47.744Z,11.30
2023-04-11T02:48:17.242Z,10.10
2023-04-11T02:50:44.753Z,9.80
2023-04-11T02:53:16.375Z,9.82
2023-04-11T02:55:43.623Z,9.68
2023-04-11T02:58:18.170Z,9.38
2023-04-11T03:00:47.939Z,11.25
2023-04-11T03:03:15.404Z,9.30
2023-04-11T03:05:42.840Z,9.93
2023-04-11T03:08:12.564Z,12.63
2023-04-11T03:10:39.871Z,12.50
2023-04-11T03:13:09.771Z,12.55
2023-04-11T03:15:37.110Z,13.52
2023-04-11T03:18:09.330Z,12.82
2023-04-11T03:20:36.625Z,12.27
2023-04-11T03:23:03.954Z,11.50
2023-04-11T03:25:31.235Z,12.27
2023-04-11T03:27:58.530Z,9.98
2023-04-11T03:30:26.983Z,10.93
2023-04-11T03:32:54.450Z,11.35
2023-04-11T03:35:21.874Z,12.07
2023-04-11T03:37:49.192Z,12.85
2023-04-11T03:40:18.538Z,13.50
2023-04-11T03:42:51.973Z,11.65
2023-04-11T03:45:19.305Z,16.13
2023-04-11T03:47:46.635Z,14.50
2023-04-11T03:50:13.958Z,11.82
2023-04-11T03:52:43.378Z,11.70
2023-04-11T03:55:10.723Z,15.48
2023-04-11T03:57:38.059Z,13.68
2023-04-11T04:00:06.551Z,14.20
2023-04-11T04:02:36.876Z,13.65
2023-04-11T04:05:04.719Z,14.10
2023-04-11T04:07:32.850Z,13.57
2023-04-11T04:10:02.554Z,14.18
2023-04-11T04:12:32.147Z,14.38
2023-04-11T04:14:59.488Z,14.27
2023-04-11T04:17:27.768Z,11.82
2023-04-11T04:19:57.583Z,13.40
2023-04-11T04:22:26.682Z,12.55
2023-04-11T04:24:58.250Z,12.90
2023-04-11T04:29:55.834Z,11.07
2023-04-11T04:32:33.505Z,11.15
2023-04-11T04:35:03.824Z,11.93
2023-04-11T04:37:31.137Z,11.75
2023-04-11T04:40:07.925Z,10.60
2023-04-11T04:42:36.468Z,10.75
2023-04-11T04:45:03.978Z,9.68
2023-04-11T04:47:36.300Z,9.48
2023-04-11T04:50:06.677Z,10.18
2023-04-11T04:52:36.414Z,10.77
2023-04-11T04:55:03.969Z,8.82
2023-04-11T04:57:34.334Z,9.50
2023-04-11T05:00:01.592Z,11.10
2023-04-11T05:02:31.945Z,11.00
2023-04-11T05:05:04.079Z,11.23
2023-04-11T05:07:31.446Z,9.48
2023-04-11T05:09:58.687Z,12.73
2023-04-11T05:12:27.263Z,12.25
2023-04-11T05:14:56.618Z,10.88
2023-04-11T05:17:25.476Z,14.35
2023-04-11T05:19:52.999Z,11.73
2023-04-11T05:22:24.841Z,10.90
2023-04-11T05:24:52.062Z,13.50
2023-04-11T05:27:19.398Z,17.70
2023-04-11T05:29:46.661Z,14.50
2023-04-11T05:32:13.999Z,13.00
2023-04-11T05:34:56.687Z,14.50
2023-04-11T05:37:31.245Z,13.60
2023-04-11T05:39:58.647Z,14.48
2023-04-11T05:42:28.153Z,38.10
2023-04-11T05:44:57.612Z,28.08
2023-04-11T05:47:29.844Z,18.05
2023-04-11T05:50:01.727Z,15.93
2023-04-11T05:52:29.093Z,13.90
2023-04-11T05:54:56.318Z,20.55
2023-04-11T05:57:23.593Z,13.50
2023-04-11T05:59:52.977Z,14.00
2023-04-11T06:02:20.436Z,13.02
2023-04-11T06:04:47.912Z,14.45
2023-04-11T06:07:15.598Z,13.57
2023-04-11T06:09:45.484Z,14.60
2023-04-11T06:12:12.724Z,13.73
2023-04-11T06:14:40.708Z,15.85
2023-04-11T06:17:08.161Z,13.60
2023-04-11T06:19:35.406Z,12.32
2023-04-11T06:22:02.747Z,13.07
2023-04-11T06:24:38.494Z,15.68
2023-04-11T06:27:11.604Z,14.52
2023-04-11T06:29:43.583Z,15.55
2023-04-11T06:32:12.661Z,13.95
2023-04-11T06:34:40.278Z,13.60
2023-04-11T06:37:09.801Z,14.63
2023-04-11T06:39:37.183Z,16.27
2023-04-11T06:42:04.568Z,16.13
2023-04-11T06:44:31.908Z,13.98
2023-04-11T06:46:59.339Z,15.75
2023-04-11T06:49:28.263Z,16.80
2023-04-11T06:51:59.471Z,17.52
2023-04-11T06:54:26.792Z,17.13
2023-04-11T06:56:57.570Z,16.45
2023-04-11T06:59:24.922Z,15.60
2023-04-11T07:01:52.445Z,17.58
2023-04-11T07:04:20.027Z,16.10
2023-04-11T07:06:47.961Z,15.23
2023-04-11T07:09:17.503Z,14.90
2023-04-11T07:11:45.113Z,15.60
2023-04-11T07:14:12.513Z,16.10
2023-04-11T07:16:42.249Z,15.90
2023-04-11T07:19:12.007Z,18.23
2023-04-11T07:21:44.211Z,15.82
2023-04-11T07:24:13.940Z,16.70
2023-04-11T07:26:42.419Z,18.30
2023-04-11T07:29:11.622Z,17.45
2023-04-11T07:31:40.933Z,16.65
2023-04-11T07:34:10.763Z,15.13
2023-04-11T07:36:40.644Z,16.13
2023-04-11T07:39:12.304Z,18.92
2023-04-11T07:41:39.669Z,18.08
2023-04-11T07:44:07.702Z,18.45
2023-04-11T07:46:39.324Z,17.63
2023-04-11T07:49:06.642Z,18.70
2023-04-11T07:51:36.305Z,18.90
2023-04-11T07:54:03.886Z,19.50
2023-04-11T07:56:31.193Z,18.42
2023-04-11T07:59:01.356Z,21.65
2023-04-11T08:01:31.404Z,19.73
2023-04-11T08:03:58.869Z,18.27
2023-04-11T08:06:29.679Z,18.92
2023-04-11T08:08:58.749Z,19.20
2023-04-11T08:11:26.190Z,17.40
2023-04-11T08:13:55.908Z,18.08
2023-04-11T08:16:23.505Z,17.73
2023-04-11T08:18:53.040Z,17.88
2023-04-11T08:21:25.816Z,18.77
2023-04-11T08:23:53.152Z,18.70
2023-04-11T08:26:21.186Z,21.23
2023-04-11T08:28:51.130Z,16.20
2023-04-11T08:31:23.843Z,19.92
2023-04-11T08:33:51.151Z,20.70
2023-04-11T08:36:18.721Z,19.95
2023-04-11T08:38:46.157Z,18.80
2023-04-11T08:41:14.521Z,17.77
2023-04-11T08:43:42.513Z,16.42
2023-04-11T08:46:09.844Z,17.92
2023-04-11T08:48:39.440Z,18.08
2023-04-11T08:51:07.390Z,16.80
2023-04-11T08:53:38.438Z,16.00
2023-04-11T08:56:06.433Z,16.55
2023-04-11T08:58:33.749Z,17.85
2023-04-11T09:01:32.636Z,18.05
2023-04-11T09:04:01.993Z,19.30
2023-04-11T09:06:30.772Z,20.30
2023-04-11T09:09:05.191Z,21.13
2023-04-11T09:11:51.959Z,19.27
2023-04-11T09:14:26.146Z,20.90
2023-04-11T09:16:58.201Z,19.95
2023-04-11T09:19:34.778Z,19.30
2023-04-11T09:22:07.003Z,17.02
2023-04-11T09:24:35.841Z,18.98
2023-04-11T09:27:10.343Z,22.02
2023-04-11T09:29:45.799Z,18.65
2023-04-11T09:32:35.380Z,20.95
2023-04-11T09:35:20.387Z,20.00
2023-04-11T09:37:51.799Z,19.80
2023-04-11T09:40:22.189Z,21.88
2023-04-11T09:42:56.747Z,18.55
2023-04-11T09:45:27.387Z,19.63
2023-04-11T09:47:56.871Z,16.95
2023-04-11T09:50:27.825Z,19.35
2023-04-11T09:52:59.246Z,18.15
2023-04-11T09:57:56.650Z,18.08
2023-04-11T10:00:32.369Z,17.80
2023-04-11T10:02:59.869Z,17.70
2023-04-11T10:05:31.774Z,19.67
2023-04-11T10:10:53.002Z,18.58
2023-04-11T10:13:37.493Z,17.05
2023-04-11T10:16:18.830Z,19.65
2023-04-11T10:18:55.233Z,19.30
2023-04-11T10:21:33.864Z,22.23
2023-04-11T10:24:17.226Z,24.83
2023-04-11T10:26:50.701Z,19.05
2023-04-11T10:29:43.044Z,14.20
2023-04-11T10:32:21.900Z,13.43
2023-04-11T10:34:52.356Z,7.10
2023-04-11T10:37:34.334Z,4.10
2023-04-11T10:42:43.132Z,4.93
2023-04-11T10:45:30.297Z,2.58
2023-04-11T10:48:01.556Z,2.38
2023-04-11T10:50:31.999Z,1.85
2023-04-11T10:53:09.630Z,3.55
2023-04-11T10:55:47.913Z,4.97
2023-04-11T10:58:22.440Z,3.88
2023-04-11T11:00:49.703Z,4.25
2023-04-11T11:03:31.741Z,2.00
2023-04-11T11:06:07.252Z,1.63
2023-04-11T11:08:41.828Z,6.65
2023-04-11T11:11:13.530Z,5.95
2023-04-11T11:16:16.625Z,2.53
2023-04-11T11:18:56.671Z,2.00
2023-04-11T11:21:28.376Z,4.63
2023-04-11T11:23:57.795Z,3.92
2023-04-11T11:26:46.631Z,4.10
2023-04-11T11:29:16.842Z,3.10
2023-04-11T11:31:46.384Z,2.90
2023-04-11T11:34:23.737Z,3.70
2023-04-11T11:36:52.703Z,2.67
2023-04-11T11:39:25.310Z,3.47
2023-04-11T11:41:53.552Z,3.30
2023-04-11T11:44:27.327Z,2.67
2023-04-11T11:47:07.008Z,2.65
2023-04-11T11:49:54.352Z,2.55
2023-04-11T11:52:51.318Z,1.98
2023-04-11T11:55:18.500Z,2.15
2023-04-11T11:57:47.034Z,2.42
2023-04-11T12:00:15.951Z,2.25
2023-04-11T12:02:50.381Z,2.63
2023-04-11T12:05:18.290Z,3.20
2023-04-11T12:07:45.877Z,2.75
2023-04-11T12:10:17.306Z,2.28
2023-04-11T12:12:53.168Z,3.65
2023-04-11T12:15:23.771Z,1.88
2023-04-11T12:17:53.570Z,2.17
2023-04-11T12:20:25.071Z,1.73
2023-04-11T12:22:54.680Z,1.90
2023-04-11T12:25:23.000Z,1.77
2023-04-11T12:27:50.397Z,1.70
2023-04-11T12:30:20.075Z,1.92
2023-04-11T12:32:49.513Z,3.00
2023-04-11T12:35:19.242Z,1.65
2023-04-11T12:37:48.749Z,1.92
2023-04-11T12:40:16.401Z,1.90
2023-04-11T12:42:56.238Z,2.20
2023-04-11T12:45:24.712Z,2.22
2023-04-11T12:47:54.689Z,1.65
2023-04-11T12:50:23.681Z,2.35
2023-04-11T12:52:51.732Z,2.55
2023-04-11T12:55:19.211Z,2.00
2023-04-11T12:57:46.742Z,1.70
2023-04-11T13:00:16.838Z,1.40
2023-04-11T13:02:46.791Z,2.25
2023-04-11T13:05:17.516Z,1.98
2023-04-11T13:07:47.826Z,1.83
2023-04-11T13:10:18.108Z,1.40
2023-04-11T13:12:46.514Z,1.67
2023-04-11T13:15:17.026Z,1.52
2023-04-11T13:17:44.794Z,1.38
2023-04-11T13:20:12.934Z,1.40
2023-04-11T13:22:43.469Z,1.75
2023-04-11T13:25:12.427Z,2.15
2023-04-11T13:27:40.982Z,1.75
2023-04-11T13:30:09.966Z,1.98
2023-04-11T13:32:37.384Z,1.40
2023-04-11T13:35:05.891Z,2.22
2023-04-11T13:37:35.438Z,1.17
2023-04-11T13:40:06.246Z,2.53
2023-04-11T13:42:35.768Z,2.58
2023-04-11T13:45:04.500Z,0.90
2023-04-11T13:47:31.839Z,1.38
2023-04-11T13:49:59.108Z,2.33
2023-04-11T13:52:28.612Z,0.95
2023-04-11T13:54:58.217Z,1.40
2023-04-11T13:57:25.457Z,3.10
2023-04-11T13:59:55.069Z,2.83
2023-04-11T14:02:22.517Z,3.60
2023-04-11T14:04:49.849Z,2.42
2023-04-11T14:07:19.288Z,1.88
2023-04-11T14:09:49.053Z,2.03
2023-04-11T14:12:16.359Z,2.03
2023-04-11T14:14:45.834Z,5.07
2023-04-11T14:17:15.665Z,2.22
2023-04-11T14:19:45.422Z,1.63
2023-04-11T14:22:15.167Z,1.33
2023-04-11T14:24:42.455Z,1.42
2023-04-11T14:27:09.754Z,2.08
2023-04-11T14:29:37.665Z,1.90
2023-04-11T14:32:06.910Z,1.83
2023-04-11T14:34:36.750Z,4.00
2023-04-11T14:37:04.095Z,1.90
2023-04-11T14:39:34.012Z,3.78
2023-04-11T14:42:04.223Z,1.60
2023-04-11T14:44:31.736Z,2.65
2023-04-11T14:46:58.975Z,3.00
2023-04-11T14:49:26.202Z,2.08
2023-04-11T14:51:56.121Z,1.02
2023-04-11T14:54:26.657Z,2.45
2023-04-11T14:56:54.019Z,7.05
2023-04-11T14:59:23.614Z,1.55
2023-04-11T15:01:53.095Z,3.42
2023-04-11T15:04:22.691Z,3.00
2023-04-11T15:06:53.267Z,2.55
2023-04-11T15:09:23.044Z,3.58
2023-04-11T15:11:50.285Z,2.13
2023-04-11T15:14:19.746Z,1.85
2023-04-11T15:16:46.997Z,2.45
2023-04-11T15:19:14.268Z,2.08
2023-04-11T15:21:41.482Z,2.28
2023-04-11T15:24:08.745Z,2.00
2023-04-11T15:26:36.402Z,2.63
2023-04-11T15:29:03.650Z,1.20
2023-04-11T15:31:37.823Z,2.03
2023-04-11T15:34:07.514Z,2.55
2023-04-11T15:36:39.679Z,2.45
2023-04-11T15:39:06.891Z,3.55
2023-04-11T15:41:34.382Z,1.67
2023-04-11T15:44:04.179Z,4.35
2023-04-11T15:46:34.339Z,2.67
2023-04-11T15:49:04.072Z,2.88
2023-04-11T15:51:34.173Z,2.72
2023-04-11T15:54:04.848Z,2.30
2023-04-11T15:56:34.837Z,3.63
2023-04-11T15:59:02.427Z,1.63
2023-04-11T16:01:32.582Z,3.40
2023-04-11T16:04:02.931Z,2.85
2023-04-11T16:06:32.669Z,2.20
2023-04-11T16:08:59.917Z,7.38
2023-04-11T16:11:27.223Z,2.20
2023-04-11T16:13:54.669Z,3.97
2023-04-11T16:16:24.509Z,2.58
2023-04-11T16:18:56.413Z,2.42
2023-04-11T16:21:27.190Z,4.70
2023-04-11T16:23:57.136Z,4.35
2023-04-11T16:26:24.512Z,2.75
2023-04-11T16:28:54.083Z,2.65
2023-04-11T16:31:24.727Z,2.53
2023-04-11T16:33:59.653Z,2.25
2023-04-11T16:36:27.013Z,1.88
2023-04-11T16:38:54.825Z,2.45
2023-04-11T16:41:22.408Z,3.30
2023-04-11T16:43:49.677Z,1.50
2023-04-11T16:46:19.650Z,2.15
2023-04-11T16:48:46.971Z,2.88
2023-04-11T16:51:14.302Z,1.60
2023-04-11T16:53:43.790Z,3.28
2023-04-11T16:56:11.103Z,2.83
2023-04-11T16:58:38.511Z,5.20
2023-04-11T17:01:06.843Z,3.90
2023-04-11T17:03:34.363Z,5.50
2023-04-11T17:06:01.907Z,3.83
2023-04-11T17:08:29.201Z,4.95
2023-04-11T17:11:09.035Z,2.58
2023-04-11T17:13:37.530Z,2.85
2023-04-11T17:16:06.107Z,2.72
2023-04-11T17:18:35.928Z,3.83
2023-04-11T17:21:03.662Z,3.65
2023-04-11T17:23:42.544Z,3.25
2023-04-11T17:26:11.850Z,1.98
2023-04-11T17:28:40.042Z,3.35
2023-04-11T17:31:18.712Z,2.78
2023-04-11T17:33:46.467Z,2.83
2023-04-11T17:36:14.207Z,3.03
2023-04-11T17:38:44.672Z,2.67
2023-04-11T17:41:15.707Z,2.58
2023-04-11T17:43:46.168Z,3.38
2023-04-11T17:46:13.802Z,3.97
2023-04-11T17:48:42.056Z,2.50
2023-04-11T17:51:09.371Z,1.27
2023-04-11T17:53:38.901Z,4.45
2023-04-11T17:56:06.558Z,2.90
2023-04-11T17:58:42.477Z,2.40
2023-04-11T18:01:12.070Z,2.92
2023-04-11T18:03:42.664Z,3.03
2023-04-11T18:06:12.399Z,1.50
2023-04-11T18:11:14.293Z,2.55
2023-04-11T18:13:43.619Z,2.40
2023-04-11T18:16:11.434Z,2.38
2023-04-11T18:18:41.338Z,1.60
2023-04-11T18:21:13.494Z,1.98
2023-04-11T18:23:43.384Z,3.08
2023-04-11T18:26:10.823Z,1.75
2023-04-11T18:28:43.046Z,1.88
2023-04-11T18:31:12.648Z,1.88
2023-04-11T18:33:46.859Z,1.80
2023-04-11T18:36:14.687Z,2.35
2023-04-11T18:38:44.429Z,1.45
2023-04-11T18:41:11.673Z,2.10
2023-04-11T18:43:39.363Z,2.08
2023-04-11T18:46:07.814Z,1.80
2023-04-11T18:48:37.788Z,2.67
2023-04-11T18:51:05.884Z,3.08
2023-04-11T18:53:34.868Z,3.53
2023-04-11T18:56:05.009Z,2.30
2023-04-11T18:58:34.199Z,2.83
2023-04-11T19:01:13.961Z,1.52
2023-04-11T19:03:43.815Z,1.38
2023-04-11T19:06:11.676Z,1.48
2023-04-11T19:08:41.649Z,2.83
2023-04-11T19:11:08.965Z,1.40
2023-04-11T19:13:36.257Z,1.63
2023-04-11T19:16:03.680Z,2.17
2023-04-11T19:18:31.307Z,1.92
2023-04-11T19:21:01.342Z,2.65
2023-04-11T19:23:28.619Z,1.90
2023-04-11T19:26:00.580Z,1.67
2023-04-11T19:28:27.879Z,2.67
2023-04-11T19:30:55.155Z,1.98
2023-04-11T19:33:24.001Z,2.28
2023-04-11T19:35:51.417Z,2.35
2023-04-11T19:38:21.732Z,2.63
2023-04-11T19:40:48.975Z,2.20
2023-04-11T19:43:16.352Z,2.00
2023-04-11T19:45:44.213Z,3.97
2023-04-11T19:48:14.310Z,2.75
2023-04-11T19:50:41.804Z,2.30
2023-04-11T19:53:11.357Z,2.75
2023-04-11T19:55:38.732Z,2.35
2023-04-11T19:58:05.950Z,2.72
2023-04-11T20:00:37.627Z,2.83
2023-04-11T20:05:37.895Z,3.58
2023-04-11T20:08:09.565Z,4.00
2023-04-11T20:10:39.946Z,4.65
2023-04-11T20:13:09.698Z,4.40
2023-04-11T20:15:36.968Z,5.07
2023-04-11T20:18:06.878Z,4.32
2023-04-11T20:20:36.719Z,5.60
2023-04-11T20:23:10.452Z,4.28
2023-04-11T20:25:37.745Z,4.80
2023-04-11T20:28:04.978Z,5.30
2023-04-11T20:30:34.652Z,6.35
2023-04-11T20:33:04.223Z,4.10
2023-04-11T20:35:33.932Z,3.53
2023-04-11T20:38:01.335Z,2.90
2023-04-11T20:40:28.571Z,4.90
2023-04-11T20:43:00.224Z,3.75
2023-04-11T20:45:28.698Z,4.95
2023-04-11T20:47:57.678Z,3.78
2023-04-11T20:50:25.790Z,3.22
2023-04-11T20:52:53.246Z,5.95
2023-04-11T20:55:20.927Z,4.38
2023-04-11T20:57:50.710Z,2.28
2023-04-11T21:00:19.655Z,3.08
2023-04-11T21:02:50.244Z,2.10
2023-04-11T21:05:23.212Z,5.38
2023-04-11T21:07:55.478Z,3.38
2023-04-11T21:10:22.859Z,1.88
2023-04-11T21:12:54.775Z,2.50
2023-04-11T21:15:22.245Z,3.67
2023-04-11T21:17:50.481Z,3.15
2023-04-11T21:20:22.731Z,2.90
2023-04-11T21:22:54.941Z,2.22
2023-04-11T21:25:26.806Z,2.40
2023-04-11T21:27:54.126Z,4.22
2023-04-11T21:30:21.685Z,3.78
2023-04-11T21:32:52.049Z,2.75
2023-04-11T21:35:19.401Z,4.05
2023-04-11T21:37:51.563Z,3.35
2023-04-11T21:40:18.831Z,3.58
2023-04-11T21:42:48.258Z,3.55
2023-04-11T21:45:15.591Z,3.88
2023-04-11T21:47:42.909Z,3.55
2023-04-11T21:50:13.088Z,4.38
2023-04-11T21:52:40.504Z,2.40
2023-04-11T21:55:09.124Z,4.13
2023-04-11T21:57:38.613Z,3.10
2023-04-11T22:00:08.322Z,3.47
2023-04-11T22:02:36.234Z,2.58
2023-04-11T22:05:06.930Z,3.15
2023-04-11T22:07:47.630Z,2.05
2023-04-11T22:10:23.800Z,1.90
2023-04-11T22:12:54.508Z,3.67
2023-04-11T22:15:22.100Z,3.00
2023-04-11T22:17:51.282Z,2.35
2023-04-11T22:20:20.013Z,3.03
2023-04-11T22:22:52.446Z,4.03
2023-04-11T22:25:24.873Z,1.90
2023-04-11T22:27:54.437Z,2.88
2023-04-11T22:30:26.800Z,3.90
2023-04-11T22:32:56.517Z,3.95
2023-04-11T22:35:26.320Z,2.28
2023-04-11T22:37:57.111Z,3.40
2023-04-11T22:40:24.927Z,2.80
2023-04-11T22:42:52.511Z,3.70
2023-04-11T22:45:21.409Z,2.97
2023-04-11T22:47:53.959Z,3.85
2023-04-11T22:50:21.724Z,3.42
2023-04-11T22:52:51.442Z,2.72
2023-04-11T22:55:20.002Z,4.50
2023-04-11T22:57:49.760Z,3.55
2023-04-11T23:00:19.763Z,2.75
2023-04-11T23:02:47.290Z,2.72
2023-04-11T23:05:14.709Z,3.83
2023-04-11T23:07:44.076Z,4.90
2023-04-11T23:10:14.109Z,4.13
2023-04-11T23:12:45.129Z,3.72
2023-04-11T23:15:14.882Z,4.72
2023-04-11T23:17:44.924Z,3.63
2023-04-11T23:20:14.876Z,4.88
2023-04-11T23:22:43.778Z,3.75
2023-04-11T23:25:14.081Z,4.00
2023-04-11T23:27:45.082Z,3.53
2023-04-11T23:30:14.942Z,3.53
2023-04-11T23:32:42.872Z,4.97
2023-04-11T23:35:16.909Z,3.83
2023-04-11T23:37:47.226Z,4.07
2023-04-11T23:40:14.796Z,3.63
2023-04-11T23:42:44.607Z,3.78
2023-04-11T23:45:12.755Z,4.25
2023-04-11T23:47:40.065Z,3.95
2023-04-11T23:50:08.236Z,4.28
2023-04-11T23:52:35.637Z,5.78
2023-04-11T23:55:03.688Z,5.93
2023-04-11T23:57:33.520Z,5.13
